Time;durP1;ratioP1;P1;durP2;ratioP2;P2;SDS_P1;SDS_P2;PMS_P1;PMS_P2;Temp;Humidity;BMP_temperature;BMP_pressure;BME280_temperature;BME280_humidity;BME280_pressure;Samples;Min_cycle;Max_cycle;Signal;HPM_P1;HPM_P2
2021/08/09 00:00:52;;;;;;;2.60;1.08;;;;;;;;;;5052952;28;20021;-58
2021/08/09 00:03:18;;;;;;;4.13;1.20;;;;;;;;;;5053722;28;20122;-59
2021/08/09 00:05:46;;;;;;;2.33;1.15;;;;;;;;;;5053770;28;20040;-59
2021/08/09 00:08:13;;;;;;;2.05;1.05;;;;;;;;;;5054113;28;20025;-59
2021/08/09 00:10:39;;;;;;;2.83;1.10;;;;;;;;;;5053577;28;20401;-59
2021/08/09 00:13:05;;;;;;;2.58;1.60;;;;;;;;;;5054058;28;20094;-59
2021/08/09 00:15:31;;;;;;;2.42;0.80;;;;;;;;;;5052276;28;20059;-59
2021/08/09 00:17:57;;;;;;;1.55;0.90;;;;;;;;;;5053483;28;20360;-59
2021/08/09 00:20:23;;;;;;;2.20;1.30;;;;;;;;;;5053523;28;20032;-59
2021/08/09 00:22:52;;;;;;;2.67;1.58;;;;;;;;;;5055024;28;20025;-59
2021/08/09 00:25:18;;;;;;;2.63;1.17;;;;;;;;;;5057459;28;20463;-59
2021/08/09 00:27:44;;;;;;;2.92;1.13;;;;;;;;;;5056233;28;20470;-59
2021/08/09 00:30:11;;;;;;;2.60;1.52;;;;;;;;;;5057487;28;20111;-59
2021/08/09 00:32:40;;;;;;;1.85;1.10;;;;;;;;;;5057523;28;20029;-59
2021/08/09 00:35:07;;;;;;;3.17;1.30;;;;;;;;;;5057412;28;20488;-59
2021/08/09 00:37:33;;;;;;;2.33;1.35;;;;;;;;;;5057382;28;20383;-59
2021/08/09 00:39:59;;;;;;;2.78;1.17;;;;;;;;;;5056014;28;20036;-59
2021/08/09 00:42:25;;;;;;;2.20;0.90;;;;;;;;;;5056164;28;20025;-59
2021/08/09 00:44:51;;;;;;;2.40;1.38;;;;;;;;;;5055848;28;20028;-59
2021/08/09 00:47:19;;;;;;;1.95;1.10;;;;;;;;;;5055947;28;20052;-59
2021/08/09 00:49:45;;;;;;;2.75;1.02;;;;;;;;;;5056369;28;20047;-59
2021/08/09 00:52:12;;;;;;;2.10;1.20;;;;;;;;;;5056257;28;20075;-59
2021/08/09 00:54:38;;;;;;;3.75;1.45;;;;;;;;;;5057501;28;20040;-59
2021/08/09 00:57:04;;;;;;;10.15;1.88;;;;;;;;;;5056542;28;20025;-59
2021/08/09 00:59:31;;;;;;;1.98;1.25;;;;;;;;;;5056597;28;20025;-59
2021/08/09 01:02:00;;;;;;;3.03;1.48;;;;;;;;;;5057236;28;20417;-59
2021/08/09 01:04:26;;;;;;;3.92;1.23;;;;;;;;;;5055529;28;20036;-59
2021/08/09 01:06:52;;;;;;;4.00;1.75;;;;;;;;;;5055513;28;20082;-59
2021/08/09 01:09:29;;;;;;;2.25;1.38;;;;;;;;;;5057400;28;20086;-59
2021/08/09 01:11:58;;;;;;;2.45;1.10;;;;;;;;;;5056011;28;20037;-59
2021/08/09 01:14:34;;;;;;;4.07;1.48;;;;;;;;;;5057491;28;20087;-59
2021/08/09 01:17:01;;;;;;;2.63;1.23;;;;;;;;;;5056906;28;20028;-59
2021/08/09 01:19:40;;;;;;;2.75;1.00;;;;;;;;;;5055172;28;20029;-59
2021/08/09 01:22:15;;;;;;;1.90;1.00;;;;;;;;;;5057116;28;20036;-59
2021/08/09 01:24:49;;;;;;;2.33;1.45;;;;;;;;;;5056430;28;20083;-59
2021/08/09 01:27:24;;;;;;;3.22;1.10;;;;;;;;;;5057306;28;20366;-59
2021/08/09 01:29:50;;;;;;;2.90;1.42;;;;;;;;;;5055957;28;20616;-59
2021/08/09 01:32:17;;;;;;;4.88;1.27;;;;;;;;;;5055950;28;20021;-59
2021/08/09 01:34:43;;;;;;;2.60;1.15;;;;;;;;;;5054490;28;20103;-59
2021/08/09 01:37:10;;;;;;;3.08;1.25;;;;;;;;;;5056247;28;20490;-59
2021/08/09 01:39:37;;;;;;;9.02;2.10;;;;;;;;;;5056891;28;20060;-58
2021/08/09 01:42:03;;;;;;;2.70;1.55;;;;;;;;;;5055303;28;20021;-59
2021/08/09 01:44:29;;;;;;;2.55;1.40;;;;;;;;;;5054806;28;20171;-58
2021/08/09 01:46:55;;;;;;;5.65;1.85;;;;;;;;;;5055949;28;20065;-59
2021/08/09 01:49:22;;;;;;;3.10;1.73;;;;;;;;;;5055714;28;20032;-59
2021/08/09 01:51:48;;;;;;;5.05;1.80;;;;;;;;;;5055862;28;20451;-59
2021/08/09 01:54:16;;;;;;;3.42;1.40;;;;;;;;;;5055864;28;20025;-59
2021/08/09 01:56:43;;;;;;;2.78;1.30;;;;;;;;;;5056075;28;20040;-59
2021/08/09 01:59:09;;;;;;;2.20;1.40;;;;;;;;;;5055766;28;20021;-59
2021/08/09 02:01:40;;;;;;;2.03;1.13;;;;;;;;;;5056065;28;20692;-59
2021/08/09 02:04:07;;;;;;;3.20;1.23;;;;;;;;;;5056220;28;20037;-59
2021/08/09 02:06:33;;;;;;;1.75;1.23;;;;;;;;;;5054897;28;20028;-59
2021/08/09 02:08:59;;;;;;;3.03;1.23;;;;;;;;;;5055885;28;20029;-59
2021/08/09 02:11:30;;;;;;;2.15;1.10;;;;;;;;;;5055490;28;20494;-59
2021/08/09 02:14:02;;;;;;;2.35;1.35;;;;;;;;;;5055030;28;20053;-58
2021/08/09 02:16:42;;;;;;;2.00;1.25;;;;;;;;;;5055889;28;20033;-59
2021/08/09 02:19:08;;;;;;;3.15;1.73;;;;;;;;;;5056247;28;20057;-59
2021/08/09 02:21:40;;;;;;;2.65;1.48;;;;;;;;;;5055702;28;20021;-59
2021/08/09 02:24:11;;;;;;;2.17;1.10;;;;;;;;;;5055676;28;20382;-59
2021/08/09 02:26:43;;;;;;;2.70;1.63;;;;;;;;;;5054321;28;20060;-58
2021/08/09 02:29:22;;;;;;;4.50;1.15;;;;;;;;;;5055576;28;20040;-59
2021/08/09 02:31:48;;;;;;;3.60;1.30;;;;;;;;;;5055230;28;20029;-59
2021/08/09 02:34:17;;;;;;;2.42;1.30;;;;;;;;;;5055183;28;20029;-59
2021/08/09 02:36:43;;;;;;;2.03;1.25;;;;;;;;;;5055030;28;20477;-59
2021/08/09 02:39:09;;;;;;;4.85;1.67;;;;;;;;;;5054671;28;20071;-59
2021/08/09 02:41:36;;;;;;;6.35;1.55;;;;;;;;;;5055346;28;20118;-59
2021/08/09 02:44:02;;;;;;;5.93;1.67;;;;;;;;;;5054604;28;20108;-59
2021/08/09 02:46:28;;;;;;;2.80;1.33;;;;;;;;;;5053890;28;20486;-59
2021/08/09 02:48:54;;;;;;;3.08;1.05;;;;;;;;;;5054901;28;20033;-59
2021/08/09 02:51:20;;;;;;;1.67;1.00;;;;;;;;;;5055560;28;20032;-59
2021/08/09 02:53:50;;;;;;;2.72;1.45;;;;;;;;;;5055542;28;20340;-59
2021/08/09 02:56:17;;;;;;;2.22;1.10;;;;;;;;;;5054586;28;20029;-59
2021/08/09 02:58:48;;;;;;;4.60;1.95;;;;;;;;;;5053414;28;20025;-59
2021/08/09 03:01:18;;;;;;;1.60;0.90;;;;;;;;;;5053954;28;20121;-59
2021/08/09 03:03:45;;;;;;;2.75;1.00;;;;;;;;;;5054653;28;20428;-59
2021/08/09 03:06:12;;;;;;;2.53;1.33;;;;;;;;;;5053154;28;20032;-59
2021/08/09 03:08:38;;;;;;;5.38;1.05;;;;;;;;;;5052854;28;20025;-59
2021/08/09 03:11:04;;;;;;;2.17;1.13;;;;;;;;;;5054718;28;20024;-59
2021/08/09 03:13:30;;;;;;;2.65;1.48;;;;;;;;;;5054389;28;20021;-59
2021/08/09 03:15:57;;;;;;;3.28;1.45;;;;;;;;;;5054815;28;20086;-59
2021/08/09 03:18:33;;;;;;;2.33;1.15;;;;;;;;;;5053899;28;20021;-59
2021/08/09 03:20:59;;;;;;;2.35;1.58;;;;;;;;;;5053678;28;20021;-58
2021/08/09 03:23:25;;;;;;;2.97;1.45;;;;;;;;;;5055022;28;20033;-59
2021/08/09 03:25:54;;;;;;;4.43;1.77;;;;;;;;;;5054989;28;20132;-59
2021/08/09 03:28:20;;;;;;;2.22;1.15;;;;;;;;;;5054142;28;20035;-59
2021/08/09 03:30:46;;;;;;;2.30;1.00;;;;;;;;;;5054111;28;20062;-59
2021/08/09 03:33:12;;;;;;;2.72;1.38;;;;;;;;;;5054447;28;20079;-59
2021/08/09 03:35:38;;;;;;;1.95;0.90;;;;;;;;;;5054160;28;20466;-59
2021/08/09 03:38:04;;;;;;;2.30;1.27;;;;;;;;;;5054038;28;20421;-59
2021/08/09 03:40:30;;;;;;;1.55;0.82;;;;;;;;;;5052816;28;20020;-59
2021/08/09 03:42:56;;;;;;;3.60;1.60;;;;;;;;;;5054279;28;20489;-59
2021/08/09 03:45:22;;;;;;;3.33;1.55;;;;;;;;;;5052866;28;20060;-59
2021/08/09 03:47:48;;;;;;;2.70;1.35;;;;;;;;;;5053236;28;20061;-59
2021/08/09 03:50:14;;;;;;;1.77;1.05;;;;;;;;;;5052905;28;20035;-59
2021/08/09 03:52:49;;;;;;;3.92;1.85;;;;;;;;;;5052949;28;20086;-59
2021/08/09 03:55:15;;;;;;;3.47;1.50;;;;;;;;;;5054135;28;20390;-59
2021/08/09 03:57:41;;;;;;;2.22;1.13;;;;;;;;;;5053534;28;20025;-59
2021/08/09 04:00:08;;;;;;;5.47;1.50;;;;;;;;;;5054039;28;20474;-59
2021/08/09 04:02:39;;;;;;;4.82;1.90;;;;;;;;;;5053957;28;20087;-59
2021/08/09 04:05:07;;;;;;;3.05;1.48;;;;;;;;;;5053969;28;20025;-59
2021/08/09 04:07:33;;;;;;;2.55;1.42;;;;;;;;;;5053899;28;20029;-58
2021/08/09 04:09:59;;;;;;;1.63;0.98;;;;;;;;;;5052413;28;20025;-59
2021/08/09 04:12:25;;;;;;;3.13;1.50;;;;;;;;;;5054156;28;20035;-58
2021/08/09 04:14:54;;;;;;;2.97;1.50;;;;;;;;;;5053433;28;20025;-59
2021/08/09 04:17:23;;;;;;;2.88;1.52;;;;;;;;;;5052571;28;20017;-59
2021/08/09 04:19:49;;;;;;;2.22;1.33;;;;;;;;;;5053431;28;20021;-58
2021/08/09 04:22:15;;;;;;;3.00;1.65;;;;;;;;;;5052271;28;20379;-58
2021/08/09 04:24:41;;;;;;;3.03;1.75;;;;;;;;;;5052010;28;20048;-59
2021/08/09 04:27:07;;;;;;;3.00;2.25;;;;;;;;;;5052353;28;20041;-59
2021/08/09 04:29:33;;;;;;;2.95;1.77;;;;;;;;;;5053107;28;20467;-59
2021/08/09 04:31:58;;;;;;;4.22;1.98;;;;;;;;;;5052602;28;20075;-59
2021/08/09 04:34:25;;;;;;;2.47;1.63;;;;;;;;;;5053583;28;20356;-59
2021/08/09 04:36:51;;;;;;;4.40;1.80;;;;;;;;;;5051870;28;20028;-59
2021/08/09 04:39:17;;;;;;;2.50;1.55;;;;;;;;;;5053280;28;20082;-59
2021/08/09 04:41:46;;;;;;;4.28;1.85;;;;;;;;;;5053704;28;20021;-59
2021/08/09 04:44:13;;;;;;;6.53;2.13;;;;;;;;;;5053791;28;20021;-58
2021/08/09 04:46:40;;;;;;;7.43;2.30;;;;;;;;;;5051983;28;20064;-59
2021/08/09 04:49:06;;;;;;;2.53;1.60;;;;;;;;;;5051968;28;20036;-59
2021/08/09 04:51:32;;;;;;;7.53;2.00;;;;;;;;;;5053869;28;20017;-59
2021/08/09 04:53:58;;;;;;;2.95;1.60;;;;;;;;;;5053470;28;20037;-59
2021/08/09 04:56:24;;;;;;;3.03;1.63;;;;;;;;;;5053679;28;20028;-59
2021/08/09 04:58:50;;;;;;;4.05;2.25;;;;;;;;;;5053715;28;20029;-58
2021/08/09 05:01:16;;;;;;;3.38;1.75;;;;;;;;;;5053042;28;20114;-58
2021/08/09 05:03:42;;;;;;;3.88;1.50;;;;;;;;;;5053028;28;20029;-59
2021/08/09 05:06:09;;;;;;;2.70;1.73;;;;;;;;;;5052673;28;20429;-59
2021/08/09 05:08:35;;;;;;;1.85;0.90;;;;;;;;;;5053639;28;20025;-59
2021/08/09 05:11:01;;;;;;;2.15;1.00;;;;;;;;;;5057261;28;20473;-58
2021/08/09 05:13:26;;;;;;;3.10;1.45;;;;;;;;;;5057589;28;20082;-59
2021/08/09 05:15:52;;;;;;;2.55;1.70;;;;;;;;;;5055706;28;20421;-59
2021/08/09 05:18:19;;;;;;;2.25;1.58;;;;;;;;;;5056231;28;20048;-59
2021/08/09 05:20:46;;;;;;;2.25;1.25;;;;;;;;;;5056591;28;20029;-59
2021/08/09 05:23:14;;;;;;;3.35;1.55;;;;;;;;;;5056165;28;20047;-59
2021/08/09 05:25:40;;;;;;;7.63;2.35;;;;;;;;;;5057017;28;20391;-59
2021/08/09 05:28:06;;;;;;;5.20;1.65;;;;;;;;;;5056496;28;20417;-59
2021/08/09 05:30:32;;;;;;;2.80;1.55;;;;;;;;;;5055700;28;20336;-59
2021/08/09 05:33:02;;;;;;;5.78;1.80;;;;;;;;;;5057274;28;20351;-59
2021/08/09 05:35:28;;;;;;;2.78;1.30;;;;;;;;;;5056349;28;20086;-59
2021/08/09 05:37:54;;;;;;;3.72;1.65;;;;;;;;;;5056570;28;20024;-59
2021/08/09 05:40:21;;;;;;;4.18;1.50;;;;;;;;;;5056238;28;20036;-59
2021/08/09 05:42:50;;;;;;;4.00;1.60;;;;;;;;;;5056531;28;20044;-59
2021/08/09 05:45:18;;;;;;;3.13;1.67;;;;;;;;;;5056133;28;20108;-59
2021/08/09 05:47:44;;;;;;;2.65;1.58;;;;;;;;;;5056237;28;20047;-59
2021/08/09 05:50:11;;;;;;;2.28;1.42;;;;;;;;;;5056577;28;20112;-59
2021/08/09 05:52:37;;;;;;;1.90;1.20;;;;;;;;;;5056448;28;20040;-59
2021/08/09 05:55:10;;;;;;;3.30;1.42;;;;;;;;;;5055754;28;20029;-59
2021/08/09 05:57:38;;;;;;;4.22;1.75;;;;;;;;;;5056240;28;20033;-59
2021/08/09 06:00:05;;;;;;;6.20;1.70;;;;;;;;;;5055793;28;20025;-59
2021/08/09 06:02:31;;;;;;;5.07;2.25;;;;;;;;;;5054246;28;20029;-59
2021/08/09 06:04:57;;;;;;;4.40;2.05;;;;;;;;;;5055783;28;20029;-59
2021/08/09 06:07:23;;;;;;;2.30;1.48;;;;;;;;;;5055834;28;20032;-59
2021/08/09 06:09:49;;;;;;;2.88;1.55;;;;;;;;;;5056592;28;20447;-59
2021/08/09 06:12:15;;;;;;;2.20;1.73;;;;;;;;;;5055457;28;20471;-59
2021/08/09 06:14:41;;;;;;;3.45;1.95;;;;;;;;;;5055651;28;20044;-59
2021/08/09 06:17:07;;;;;;;3.13;1.88;;;;;;;;;;5056173;28;20036;-59
2021/08/09 06:19:35;;;;;;;2.85;1.52;;;;;;;;;;5055291;28;20025;-59
2021/08/09 06:22:01;;;;;;;4.45;1.33;;;;;;;;;;5055919;28;20039;-59
2021/08/09 06:24:27;;;;;;;3.97;1.88;;;;;;;;;;5055110;28;20052;-59
2021/08/09 06:26:53;;;;;;;2.85;1.50;;;;;;;;;;5054071;28;20040;-58
2021/08/09 06:29:19;;;;;;;2.85;1.40;;;;;;;;;;5055696;28;20025;-59
2021/08/09 06:31:45;;;;;;;2.55;1.20;;;;;;;;;;5054099;28;20136;-59
2021/08/09 06:34:11;;;;;;;4.57;1.65;;;;;;;;;;5055829;28;20052;-59
2021/08/09 06:36:37;;;;;;;3.63;1.10;;;;;;;;;;5054880;28;20064;-59
2021/08/09 06:39:03;;;;;;;2.30;1.33;;;;;;;;;;5054986;28;20029;-59
2021/08/09 06:41:32;;;;;;;5.22;1.83;;;;;;;;;;5054488;28;20087;-59
2021/08/09 06:43:58;;;;;;;3.28;1.58;;;;;;;;;;5055574;28;20024;-59
2021/08/09 06:46:24;;;;;;;4.07;1.25;;;;;;;;;;5054917;28;20033;-59
2021/08/09 06:48:50;;;;;;;2.08;1.08;;;;;;;;;;5053790;28;20036;-59
2021/08/09 06:51:17;;;;;;;2.03;1.02;;;;;;;;;;5055147;28;20021;-59
2021/08/09 06:53:45;;;;;;;5.82;1.92;;;;;;;;;;5054471;28;20029;-59
2021/08/09 06:56:15;;;;;;;2.53;1.30;;;;;;;;;;5054174;28;20040;-59
2021/08/09 06:58:43;;;;;;;3.93;1.77;;;;;;;;;;5053745;28;20450;-59
2021/08/09 07:01:11;;;;;;;2.63;1.77;;;;;;;;;;5054696;28;20025;-59
2021/08/09 07:03:37;;;;;;;4.13;1.42;;;;;;;;;;5053577;28;20093;-59
2021/08/09 07:06:03;;;;;;;3.00;1.02;;;;;;;;;;5054508;28;20064;-59
2021/08/09 07:08:28;;;;;;;4.43;2.15;;;;;;;;;;5054283;28;20463;-59
2021/08/09 07:10:56;;;;;;;4.35;1.55;;;;;;;;;;5053263;28;20037;-59
2021/08/09 07:13:22;;;;;;;6.93;1.95;;;;;;;;;;5053554;28;20086;-59
2021/08/09 07:15:49;;;;;;;2.15;1.00;;;;;;;;;;5054463;28;20053;-59
2021/08/09 07:18:15;;;;;;;3.50;1.63;;;;;;;;;;5054837;28;20368;-59
2021/08/09 07:20:41;;;;;;;2.38;1.35;;;;;;;;;;5054433;28;20021;-59
2021/08/09 07:23:07;;;;;;;7.13;1.63;;;;;;;;;;5053935;28;20111;-59
2021/08/09 07:25:33;;;;;;;3.58;1.48;;;;;;;;;;5052689;28;20071;-59
2021/08/09 07:27:59;;;;;;;4.05;1.65;;;;;;;;;;5054395;28;20107;-59
2021/08/09 07:30:26;;;;;;;2.50;1.30;;;;;;;;;;5054795;28;20036;-59
2021/08/09 07:32:52;;;;;;;2.00;1.08;;;;;;;;;;5053675;28;20117;-59
2021/08/09 07:35:18;;;;;;;3.38;1.42;;;;;;;;;;5054101;28;20048;-59
2021/08/09 07:37:43;;;;;;;1.55;0.85;;;;;;;;;;5054565;28;20100;-60
2021/08/09 07:40:10;;;;;;;3.83;1.42;;;;;;;;;;5054120;28;20091;-59
2021/08/09 07:42:36;;;;;;;2.42;1.38;;;;;;;;;;5053549;28;20059;-59
2021/08/09 07:45:05;;;;;;;3.60;1.08;;;;;;;;;;5052439;28;20455;-60
2021/08/09 07:47:31;;;;;;;2.75;1.10;;;;;;;;;;5052695;28;20123;-60
2021/08/09 07:49:57;;;;;;;3.25;1.10;;;;;;;;;;5036236;28;20382;-60
2021/08/09 07:52:23;;;;;;;3.58;1.17;;;;;;;;;;5054840;28;20032;-60
2021/08/09 07:54:49;;;;;;;1.80;1.00;;;;;;;;;;5053806;28;20017;-60
2021/08/09 07:57:15;;;;;;;1.85;1.00;;;;;;;;;;5052909;28;20033;-60
2021/08/09 07:59:42;;;;;;;2.15;0.80;;;;;;;;;;5052790;28;20075;-59
2021/08/09 08:02:08;;;;;;;1.70;0.85;;;;;;;;;;5053395;28;20067;-60
2021/08/09 08:04:34;;;;;;;3.45;1.88;;;;;;;;;;5053486;28;20112;-60
2021/08/09 08:07:00;;;;;;;3.95;0.90;;;;;;;;;;5053325;28;20087;-60
2021/08/09 08:09:29;;;;;;;8.25;1.60;;;;;;;;;;5052991;28;20417;-60
2021/08/09 08:11:57;;;;;;;3.40;1.30;;;;;;;;;;5054317;28;20021;-60
2021/08/09 08:14:24;;;;;;;3.55;1.05;;;;;;;;;;5053635;28;20013;-60
2021/08/09 08:16:50;;;;;;;1.67;0.80;;;;;;;;;;5054170;28;20139;-60
2021/08/09 08:19:18;;;;;;;1.63;0.88;;;;;;;;;;5052559;28;20021;-60
2021/08/09 08:21:44;;;;;;;2.63;1.08;;;;;;;;;;5052912;28;20017;-60
2021/08/09 08:24:10;;;;;;;1.95;1.20;;;;;;;;;;5052517;28;20359;-60
2021/08/09 08:26:36;;;;;;;3.13;1.30;;;;;;;;;;5054273;28;20075;-60
2021/08/09 08:29:02;;;;;;;1.45;0.88;;;;;;;;;;5053589;28;20025;-60
2021/08/09 08:31:28;;;;;;;4.50;0.90;;;;;;;;;;5053519;28;20021;-60
2021/08/09 08:33:54;;;;;;;2.47;0.77;;;;;;;;;;5035416;28;20066;-59
2021/08/09 08:36:20;;;;;;;1.95;0.60;;;;;;;;;;5053144;28;20025;-60
2021/08/09 08:38:46;;;;;;;4.10;1.10;;;;;;;;;;5052143;28;20040;-59
2021/08/09 08:41:12;;;;;;;1.52;0.65;;;;;;;;;;5053036;28;20052;-60
2021/08/09 08:43:38;;;;;;;1.77;0.70;;;;;;;;;;5054447;28;20025;-60
2021/08/09 08:46:06;;;;;;;2.80;1.23;;;;;;;;;;5039562;28;20029;-59
2021/08/09 08:48:33;;;;;;;2.30;0.60;;;;;;;;;;5057339;28;20017;-60
2021/08/09 08:51:01;;;;;;;2.70;0.82;;;;;;;;;;5057390;28;20021;-60
2021/08/09 08:53:28;;;;;;;1.67;0.82;;;;;;;;;;5057565;28;20411;-60
2021/08/09 08:55:54;;;;;;;2.45;0.88;;;;;;;;;;5055920;28;20025;-60
2021/08/09 08:58:22;;;;;;;3.35;0.98;;;;;;;;;;5056352;28;20125;-60
2021/08/09 09:00:49;;;;;;;1.42;0.80;;;;;;;;;;5056017;28;20025;-60
2021/08/09 09:03:25;;;;;;;1.30;0.60;;;;;;;;;;5057573;28;20032;-60
2021/08/09 09:05:58;;;;;;;3.22;0.85;;;;;;;;;;5055640;28;20490;-60
2021/08/09 09:08:42;;;;;;;2.08;0.85;;;;;;;;;;5057216;28;20029;-60
2021/08/09 09:11:12;;;;;;;1.17;0.50;;;;;;;;;;5057183;28;20024;-60
2021/08/09 09:13:58;;;;;;;1.40;0.55;;;;;;;;;;5056884;28;20025;-60
2021/08/09 09:16:25;;;;;;;1.67;0.82;;;;;;;;;;5056118;28;20037;-60
2021/08/09 09:18:55;;;;;;;2.05;0.70;;;;;;;;;;5055411;28;20021;-60
2021/08/09 09:21:24;;;;;;;;;;;;;;;;;;5056492;28;20017;-59
2021/08/09 09:23:50;;;;;;;1.83;0.70;;;;;;;;;;5056588;28;19905;-60
2021/08/09 09:26:21;;;;;;;1.90;0.73;;;;;;;;;;5057436;28;20048;-60
2021/08/09 09:28:47;;;;;;;2.63;0.90;;;;;;;;;;5056512;28;20116;-60
2021/08/09 09:31:25;;;;;;;1.40;0.60;;;;;;;;;;5056229;28;20025;-60
2021/08/09 09:33:51;;;;;;;0.85;0.40;;;;;;;;;;5056693;28;20040;-60
2021/08/09 09:36:21;;;;;;;2.38;0.90;;;;;;;;;;5056066;28;20029;-60
2021/08/09 09:38:49;;;;;;;1.53;0.63;;;;;;;;;;5056328;28;20025;-60
2021/08/09 09:41:15;;;;;;;1.52;0.68;;;;;;;;;;5056302;28;20029;-60
2021/08/09 09:43:44;;;;;;;1.80;0.50;;;;;;;;;;5056458;28;20086;-60
2021/08/09 09:46:24;;;;;;;1.88;0.77;;;;;;;;;;5054903;28;20033;-60
2021/08/09 09:49:01;;;;;;;1.30;0.60;;;;;;;;;;5056256;28;20344;-60
2021/08/09 09:51:41;;;;;;;1.63;0.90;;;;;;;;;;5056188;28;20021;-60
2021/08/09 09:54:09;;;;;;;1.38;0.45;;;;;;;;;;5056079;28;20033;-60
2021/08/09 09:56:37;;;;;;;1.48;0.63;;;;;;;;;;5056119;28;20029;-60
2021/08/09 09:59:03;;;;;;;1.83;0.65;;;;;;;;;;5056105;28;20020;-60
2021/08/09 10:01:29;;;;;;;4.00;1.45;;;;;;;;;;5055028;28;20031;-60
2021/08/09 10:03:54;;;;;;;4.47;0.90;;;;;;;;;;5055523;28;20108;-59
2021/08/09 10:06:21;;;;;;;3.58;0.70;;;;;;;;;;5056257;28;20068;-59
2021/08/09 10:08:48;;;;;;;2.70;0.73;;;;;;;;;;5056101;28;20043;-60
2021/08/09 10:11:14;;;;;;;2.25;0.68;;;;;;;;;;5055787;28;20025;-60
2021/08/09 10:13:40;;;;;;;2.30;1.10;;;;;;;;;;5056238;28;20045;-60
2021/08/09 10:16:07;;;;;;;1.90;1.00;;;;;;;;;;5056128;28;20067;-60
2021/08/09 10:18:35;;;;;;;2.38;0.90;;;;;;;;;;5055754;28;20486;-60
2021/08/09 10:21:02;;;;;;;1.10;0.60;;;;;;;;;;5055527;28;20375;-60
2021/08/09 10:23:36;;;;;;;4.32;1.05;;;;;;;;;;5055365;28;20409;-60
2021/08/09 10:26:02;;;;;;;2.50;0.80;;;;;;;;;;5054600;28;20045;-59
2021/08/09 10:28:48;;;;;;;2.38;0.68;;;;;;;;;;5055287;28;20078;-59
2021/08/09 10:31:24;;;;;;;1.73;0.63;;;;;;;;;;5055137;28;20031;-60
2021/08/09 10:33:50;;;;;;;2.10;0.90;;;;;;;;;;5055461;28;20347;-60
2021/08/09 10:36:21;;;;;;;2.17;0.65;;;;;;;;;;5054954;28;20131;-60
2021/08/09 10:38:47;;;;;;;1.45;0.75;;;;;;;;;;5055398;28;20017;-60
2021/08/09 10:41:13;;;;;;;4.88;0.60;;;;;;;;;;5055158;28;20029;-60
2021/08/09 10:44:06;;;;;;;2.33;0.90;;;;;;;;;;5055554;28;20508;-60
2021/08/09 10:46:42;;;;;;;2.63;0.60;;;;;;;;;;5038225;28;20045;-60
2021/08/09 10:49:09;;;;;;;3.63;1.08;;;;;;;;;;5054886;28;20017;-60
2021/08/09 10:51:53;;;;;;;1.60;0.80;;;;;;;;;;5055000;28;20027;-60
2021/08/09 10:54:26;;;;;;;2.08;0.63;;;;;;;;;;5053715;28;20025;-60
2021/08/09 10:56:52;;;;;;;3.25;0.95;;;;;;;;;;5054564;28;20029;-60
2021/08/09 10:59:40;;;;;;;1.70;0.75;;;;;;;;;;5054936;28;20036;-60
2021/08/09 11:02:17;;;;;;;1.92;0.80;;;;;;;;;;5055329;28;20480;-60
2021/08/09 11:04:42;;;;;;;1.88;0.75;;;;;;;;;;5055514;28;20370;-60
2021/08/09 11:07:16;;;;;;;1.30;0.60;;;;;;;;;;5053842;28;20029;-60
2021/08/09 11:09:43;;;;;;;0.95;0.50;;;;;;;;;;5055157;28;20025;-60
2021/08/09 11:12:19;;;;;;;1.38;0.68;;;;;;;;;;5054878;28;20358;-60
2021/08/09 11:15:00;;;;;;;1.60;0.75;;;;;;;;;;5053576;28;20017;-60
2021/08/09 11:17:27;;;;;;;3.15;0.68;;;;;;;;;;5054450;28;20017;-60
2021/08/09 11:19:53;;;;;;;2.00;0.80;;;;;;;;;;5054136;28;20024;-60
2021/08/09 11:22:20;;;;;;;2.17;0.70;;;;;;;;;;5054908;28;20025;-60
2021/08/09 11:24:46;;;;;;;2.13;1.10;;;;;;;;;;5052855;28;20053;-60
2021/08/09 11:27:12;;;;;;;1.45;0.80;;;;;;;;;;5054297;28;20471;-60
2021/08/09 11:29:52;;;;;;;1.10;0.55;;;;;;;;;;5054287;28;20029;-60
2021/08/09 11:32:34;;;;;;;2.20;1.00;;;;;;;;;;5054719;28;20467;-60
2021/08/09 11:35:01;;;;;;;0.73;0.32;;;;;;;;;;5054284;28;20444;-60
2021/08/09 11:37:27;;;;;;;2.63;0.77;;;;;;;;;;5054739;28;20029;-60
2021/08/09 11:39:53;;;;;;;1.77;0.47;;;;;;;;;;5054147;28;20028;-60
2021/08/09 11:42:19;;;;;;;1.98;0.73;;;;;;;;;;5054626;28;20089;-60
2021/08/09 11:44:46;;;;;;;1.92;0.70;;;;;;;;;;5052849;28;20462;-60
2021/08/09 11:47:20;;;;;;;2.42;0.73;;;;;;;;;;5054196;28;20455;-60
2021/08/09 11:49:46;;;;;;;1.83;0.70;;;;;;;;;;5054240;28;20017;-60
2021/08/09 11:52:18;;;;;;;2.13;0.65;;;;;;;;;;5053571;28;20074;-60
2021/08/09 11:54:44;;;;;;;2.22;0.88;;;;;;;;;;5054502;28;20036;-60
2021/08/09 11:57:10;;;;;;;3.58;0.95;;;;;;;;;;5053833;28;20029;-60
2021/08/09 11:59:40;;;;;;;2.88;0.93;;;;;;;;;;5053977;28;20402;-60
2021/08/09 12:02:07;;;;;;;1.23;0.65;;;;;;;;;;5053846;28;20017;-60
2021/08/09 12:04:43;;;;;;;3.40;1.35;;;;;;;;;;5053720;28;20029;-60
2021/08/09 12:07:22;;;;;;;2.15;0.80;;;;;;;;;;5053666;28;20060;-60
2021/08/09 12:09:48;;;;;;;1.70;1.00;;;;;;;;;;5053989;28;20104;-60
2021/08/09 12:12:15;;;;;;;3.53;0.90;;;;;;;;;;5052493;28;20032;-60
2021/08/09 12:14:41;;;;;;;2.33;0.80;;;;;;;;;;5052433;28;20043;-57
2021/08/09 12:17:34;;;;;;;1.10;0.50;;;;;;;;;;5053654;28;20036;-57
2021/08/09 12:20:12;;;;;;;3.90;0.93;;;;;;;;;;5059055;28;20033;-57
2021/08/09 12:22:38;;;;;;;2.13;0.85;;;;;;;;;;5060546;28;20017;-57
2021/08/09 12:25:07;;;;;;;1.60;0.70;;;;;;;;;;5058527;28;20144;-58
2021/08/09 12:27:33;;;;;;;6.00;1.00;;;;;;;;;;5058916;28;20135;-57
2021/08/09 12:30:06;;;;;;;3.55;0.80;;;;;;;;;;5060249;28;20021;-57
2021/08/09 12:32:32;;;;;;;2.33;0.52;;;;;;;;;;5060207;28;20029;-57
2021/08/09 12:34:59;;;;;;;2.38;1.13;;;;;;;;;;5059957;28;20017;-57
2021/08/09 12:37:25;;;;;;;1.27;0.60;;;;;;;;;;5060617;28;20025;-57
2021/08/09 12:39:51;;;;;;;2.15;0.75;;;;;;;;;;5060742;28;20021;-57
2021/08/09 12:42:22;;;;;;;2.75;0.93;;;;;;;;;;5060019;28;20087;-57
2021/08/09 12:44:49;;;;;;;1.83;0.60;;;;;;;;;;5060248;28;20374;-57
2021/08/09 12:47:15;;;;;;;1.55;0.85;;;;;;;;;;5059955;28;20033;-57
2021/08/09 12:49:42;;;;;;;1.83;0.57;;;;;;;;;;5060466;28;20351;-57
2021/08/09 12:52:08;;;;;;;1.45;0.60;;;;;;;;;;5060440;28;20021;-57
2021/08/09 12:54:34;;;;;;;1.00;0.40;;;;;;;;;;5060138;28;20021;-57
2021/08/09 12:57:00;;;;;;;2.58;1.15;;;;;;;;;;5059912;28;20580;-57
2021/08/09 12:59:28;;;;;;;2.22;1.00;;;;;;;;;;5060671;28;20162;-57
2021/08/09 13:01:55;;;;;;;2.88;1.00;;;;;;;;;;5060271;28;20017;-57
2021/08/09 13:04:21;;;;;;;2.85;1.17;;;;;;;;;;5060102;28;20324;-57
2021/08/09 13:06:47;;;;;;;1.17;0.60;;;;;;;;;;5059993;28;20039;-57
2021/08/09 13:09:13;;;;;;;1.63;0.65;;;;;;;;;;5058611;28;20025;-57
2021/08/09 13:11:40;;;;;;;2.17;1.27;;;;;;;;;;5060674;28;20052;-58
2021/08/09 13:14:06;;;;;;;1.73;0.80;;;;;;;;;;5059806;28;20013;-59
2021/08/09 13:16:34;;;;;;;3.20;0.88;;;;;;;;;;5060156;28;20104;-59
2021/08/09 13:19:00;;;;;;;1.40;0.60;;;;;;;;;;5059680;28;20049;-59
2021/08/09 13:21:26;;;;;;;1.45;0.70;;;;;;;;;;5060354;28;20018;-59
2021/08/09 13:23:52;;;;;;;4.45;1.30;;;;;;;;;;5059513;28;20021;-59
2021/08/09 13:26:18;;;;;;;3.30;1.05;;;;;;;;;;5060311;28;20182;-59
2021/08/09 13:28:44;;;;;;;1.33;0.60;;;;;;;;;;5060296;28;20032;-59
2021/08/09 13:31:10;;;;;;;2.03;1.00;;;;;;;;;;5055854;28;20075;-59
2021/08/09 13:33:36;;;;;;;1.42;0.65;;;;;;;;;;5057316;28;20111;-59
2021/08/09 13:36:03;;;;;;;1.63;0.85;;;;;;;;;;5056415;28;20492;-59
2021/08/09 13:38:31;;;;;;;1.60;0.80;;;;;;;;;;5056060;28;20079;-59
2021/08/09 13:40:57;;;;;;;2.45;1.10;;;;;;;;;;5056653;28;20025;-59
2021/08/09 13:43:23;;;;;;;2.17;0.88;;;;;;;;;;5056038;28;20025;-59
2021/08/09 13:45:49;;;;;;;3.03;1.08;;;;;;;;;;5056493;28;20029;-59
2021/08/09 13:48:15;;;;;;;2.10;0.98;;;;;;;;;;5056188;28;20024;-59
2021/08/09 13:50:41;;;;;;;2.88;1.02;;;;;;;;;;5056087;28;20045;-59
2021/08/09 13:53:07;;;;;;;4.38;1.13;;;;;;;;;;5056634;28;20021;-59
2021/08/09 13:55:33;;;;;;;2.25;1.25;;;;;;;;;;5055788;28;20025;-59
2021/08/09 13:57:59;;;;;;;5.38;0.80;;;;;;;;;;5054677;28;20060;-59
2021/08/09 14:00:25;;;;;;;2.22;1.08;;;;;;;;;;5056547;28;20021;-59
2021/08/09 14:02:51;;;;;;;3.03;1.05;;;;;;;;;;5055984;28;20017;-61
2021/08/09 14:05:17;;;;;;;1.45;0.80;;;;;;;;;;5055408;28;20104;-59
2021/08/09 14:07:43;;;;;;;2.60;1.00;;;;;;;;;;5055810;28;20021;-59
2021/08/09 14:10:10;;;;;;;2.22;0.70;;;;;;;;;;5056060;28;20147;-59
2021/08/09 14:12:37;;;;;;;1.92;0.90;;;;;;;;;;5056133;28;20025;-59
2021/08/09 14:15:03;;;;;;;2.05;1.17;;;;;;;;;;5055667;28;20028;-59
2021/08/09 14:17:29;;;;;;;1.70;0.73;;;;;;;;;;5055733;28;20106;-59
2021/08/09 14:19:55;;;;;;;3.08;1.00;;;;;;;;;;5055311;28;20087;-59
2021/08/09 14:22:21;;;;;;;2.15;1.20;;;;;;;;;;5056178;28;20025;-59
2021/08/09 14:24:47;;;;;;;3.67;0.77;;;;;;;;;;5055834;28;20051;-59
2021/08/09 14:27:16;;;;;;;3.85;1.00;;;;;;;;;;5055504;28;20033;-59
2021/08/09 14:29:43;;;;;;;4.05;0.90;;;;;;;;;;5055227;28;20468;-59
2021/08/09 14:32:08;;;;;;;1.52;0.73;;;;;;;;;;5056198;28;20035;-59
2021/08/09 14:34:34;;;;;;;2.40;1.20;;;;;;;;;;5055865;28;20024;-59
2021/08/09 14:37:03;;;;;;;2.25;0.80;;;;;;;;;;5055824;28;20036;-59
2021/08/09 14:39:30;;;;;;;2.75;0.82;;;;;;;;;;5055858;28;20031;-59
2021/08/09 14:41:56;;;;;;;2.28;1.10;;;;;;;;;;5054620;28;20013;-59
2021/08/09 14:44:22;;;;;;;2.58;0.82;;;;;;;;;;5055474;28;20036;-59
2021/08/09 14:46:48;;;;;;;1.90;0.85;;;;;;;;;;5054765;28;20033;-59